Time;durP1;ratioP1;P1;durP2;ratioP2;P2;SDS_P1;SDS_P2;PMS_P1;PMS_P2;Temp;Humidity;BMP_temperature;BMP_pressure;BME280_temperature;BME280_humidity;BME280_pressure;Samples;Min_cycle;Max_cycle;Signal;HPM_P1;HPM_P2
2021/12/13 00:02:09;;;;;;;3.85;1.10;;;4.80;99.90;;;;;;5113645;27;20079;-80
2021/12/13 00:04:36;;;;;;;2.65;0.90;;;4.80;99.90;;;;;;5115846;27;20015;-79
2021/12/13 00:07:07;;;;;;;4.65;0.93;;;4.80;99.90;;;;;;5148885;27;20027;-80
2021/12/13 00:09:40;;;;;;;4.03;1.40;;;4.80;99.90;;;;;;5138271;27;20434;-78
2021/12/13 00:12:07;;;;;;;6.22;2.20;;;4.80;99.90;;;;;;5113302;27;20763;-79
2021/12/13 00:14:37;;;;;;;5.68;2.00;;;4.70;99.90;;;;;;5113150;27;20119;-79
2021/12/13 00:17:24;;;;;;;5.85;2.60;;;4.80;99.90;;;;;;5130554;27;20479;-79
2021/12/13 00:20:27;;;;;;;4.93;2.40;;;4.60;99.90;;;;;;5111312;27;20499;-79
2021/12/13 00:22:55;;;;;;;5.90;2.30;;;4.50;99.90;;;;;;5129580;27;20027;-78
2021/12/13 00:25:24;;;;;;;5.03;2.33;;;4.40;99.90;;;;;;5111531;27;20564;-78
2021/12/13 00:28:06;;;;;;;6.18;2.92;;;4.40;99.90;;;;;;5115330;27;20523;-80
2021/12/13 00:31:03;;;;;;;6.07;2.35;;;4.30;99.90;;;;;;5116760;27;20552;-79
2021/12/13 00:33:42;;;;;;;4.93;2.45;;;4.20;99.90;;;;;;5114661;27;20032;-79
2021/12/13 00:36:30;;;;;;;5.30;2.55;;;4.20;99.90;;;;;;5134983;27;20027;-79
2021/12/13 00:39:07;;;;;;;4.55;2.28;;;4.10;99.90;;;;;;5117563;27;20464;-79
2021/12/13 00:41:34;;;;;;;5.00;1.92;;;4.10;99.90;;;;;;5129544;27;20034;-80
2021/12/13 00:44:08;;;;;;;5.20;1.85;;;4.10;99.90;;;;;;5136043;27;20023;-80
2021/12/13 00:46:36;;;;;;;5.18;2.08;;;4.10;99.90;;;;;;5136424;27;20107;-79
2021/12/13 00:49:07;;;;;;;5.53;2.35;;;4.10;99.90;;;;;;5117899;27;20027;-80
2021/12/13 00:51:39;;;;;;;5.40;2.42;;;4.10;99.90;;;;;;5136477;27;20051;-80
2021/12/13 00:54:13;;;;;;;6.93;2.75;;;4.10;99.90;;;;;;5119070;27;20038;-79
2021/12/13 00:56:53;;;;;;;4.38;1.75;;;4.10;99.90;;;;;;5118664;27;20431;-80
2021/12/13 00:59:34;;;;;;;8.38;2.55;;;4.00;99.90;;;;;;5118128;27;20529;-79
2021/12/13 01:02:02;;;;;;;5.43;2.50;;;4.00;99.90;;;;;;5120099;27;20031;-80
2021/12/13 01:04:56;;;;;;;4.88;2.65;;;3.90;99.90;;;;;;5119792;27;20139;-79
2021/12/13 01:07:46;;;;;;;6.18;2.40;;;3.90;99.90;;;;;;5118077;27;20064;-79
2021/12/13 01:10:33;;;;;;;5.28;2.67;;;3.90;99.90;;;;;;5135300;27;20130;-81
2021/12/13 01:12:59;;;;;;;6.60;3.15;;;3.90;99.90;;;;;;5118198;27;20070;-79
2021/12/13 01:15:37;;;;;;;;;;;3.90;99.90;;;;;;5118329;27;20026;-80
2021/12/13 01:18:34;;;;;;;6.18;2.85;;;3.70;99.90;;;;;;5118167;27;20507;-80
2021/12/13 01:21:28;;;;;;;6.47;2.97;;;3.80;99.90;;;;;;5136414;27;20049;-79
2021/12/13 01:24:04;;;;;;;4.20;2.10;;;3.70;99.90;;;;;;5117465;27;20078;-79
2021/12/13 01:26:47;;;;;;;5.33;2.03;;;3.70;99.90;;;;;;5118125;27;20209;-78
2021/12/13 01:29:16;;;;;;;4.45;2.00;;;3.60;99.90;;;;;;5134572;27;20326;-79
2021/12/13 01:31:57;;;;;;;7.05;2.20;;;3.60;99.90;;;;;;5113593;27;20030;-78
2021/12/13 01:34:24;;;;;;;5.38;2.35;;;3.50;99.90;;;;;;5135408;27;20019;-79
2021/12/13 01:37:03;;;;;;;5.93;1.92;;;3.50;99.90;;;;;;5131905;27;20053;-79
2021/12/13 01:39:31;;;;;;;5.32;1.83;;;3.40;99.90;;;;;;5113828;27;20510;-79
2021/12/13 01:42:12;;;;;;;3.55;1.70;;;3.40;99.90;;;;;;5132804;27;20038;-79
2021/12/13 01:44:44;;;;;;;3.70;1.55;;;3.40;99.90;;;;;;5114110;27;20031;-78
2021/12/13 01:47:20;;;;;;;5.55;1.55;;;3.40;99.90;;;;;;5131783;28;20027;-79
2021/12/13 01:49:51;;;;;;;4.03;1.52;;;3.40;99.90;;;;;;5132943;28;20507;-79
2021/12/13 01:52:25;;;;;;;3.75;1.33;;;3.40;99.90;;;;;;5113879;28;20118;-80
2021/12/13 01:54:52;;;;;;;5.00;2.00;;;3.50;99.90;;;;;;5135356;28;20057;-79
2021/12/13 01:57:26;;;;;;;5.32;2.05;;;3.50;99.90;;;;;;5137046;28;20020;-79
2021/12/13 02:00:07;;;;;;;4.18;1.38;;;3.50;99.90;;;;;;5122674;28;20038;-80
2021/12/13 02:02:43;;;;;;;3.33;1.13;;;3.70;99.90;;;;;;5137134;28;20020;-80
2021/12/13 02:05:18;;;;;;;4.72;1.98;;;3.70;99.90;;;;;;5116801;28;20528;-80
2021/12/13 02:08:10;;;;;;;4.43;1.40;;;3.80;99.90;;;;;;5136171;28;20027;-80
2021/12/13 02:10:43;;;;;;;4.40;1.88;;;3.80;99.90;;;;;;5130141;28;20043;-80
2021/12/13 02:13:15;;;;;;;3.65;1.48;;;3.70;99.90;;;;;;5118952;28;20203;-81
2021/12/13 02:18:32;;;;;;;5.40;1.88;;;3.70;99.90;;;;;;5137829;28;20030;-79
2021/12/13 02:21:06;;;;;;;3.95;1.95;;;3.70;99.90;;;;;;5134152;28;20059;-80
2021/12/13 02:23:35;;;;;;;6.38;2.20;;;3.70;99.90;;;;;;5119950;28;20031;-80
2021/12/13 02:26:01;;;;;;;4.28;1.58;;;3.50;99.90;;;;;;5120390;28;20480;-79
2021/12/13 02:28:28;;;;;;;;;;;3.40;99.90;;;;;;5139862;28;20065;-80
2021/12/13 02:31:04;;;;;;;4.57;1.80;;;3.30;99.90;;;;;;5121949;28;20286;-80
2021/12/13 02:33:32;;;;;;;4.82;1.70;;;3.20;99.90;;;;;;5140084;28;20035;-80
2021/12/13 02:36:02;;;;;;;3.50;1.60;;;3.10;99.90;;;;;;5139800;28;20034;-80
2021/12/13 02:38:28;;;;;;;4.32;1.65;;;3.00;99.90;;;;;;5123988;27;20095;-80
2021/12/13 02:40:54;;;;;;;;;;;2.90;99.90;;;;;;5143413;27;20027;-81
2021/12/13 02:43:27;;;;;;;5.72;2.20;;;2.80;99.90;;;;;;5142286;27;19911;-79
2021/12/13 02:45:56;;;;;;;5.50;2.00;;;2.70;99.90;;;;;;5124765;27;20035;-79
2021/12/13 02:48:33;;;;;;;9.77;4.28;;;2.70;99.90;;;;;;5143180;27;20045;-81
2021/12/13 02:51:12;;;;;;;10.35;3.67;;;2.70;99.90;;;;;;5142660;27;20038;-79
2021/12/13 02:54:01;;;;;;;8.88;3.45;;;2.70;99.90;;;;;;5141735;27;20196;-79
2021/12/13 02:56:37;;;;;;;8.18;3.53;;;2.70;99.90;;;;;;5141801;27;20502;-80
2021/12/13 02:59:05;;;;;;;7.82;3.13;;;2.60;99.90;;;;;;5121250;27;20023;-78
2021/12/13 03:02:11;;;;;;;10.23;3.38;;;2.60;99.90;;;;;;5121030;27;20061;-79
2021/12/13 03:04:37;;;;;;;6.10;2.55;;;2.50;99.90;;;;;;5111083;27;20031;-79
2021/12/13 03:07:03;;;;;;;;;;;2.60;99.90;;;;;;5118832;27;20065;-80
2021/12/13 03:09:31;;;;;;;6.35;3.58;;;2.60;99.90;;;;;;5119463;27;19905;-79
2021/12/13 03:11:58;;;;;;;3.50;1.40;;;2.60;99.90;;;;;;5121790;27;20080;-80
2021/12/13 03:14:34;;;;;;;4.38;1.52;;;2.60;99.90;;;;;;5120078;27;20031;-80
2021/12/13 03:17:07;;;;;;;4.68;1.20;;;2.50;99.90;;;;;;5119432;27;20084;-79
2021/12/13 03:19:42;;;;;;;3.22;1.63;;;2.60;99.90;;;;;;5138061;27;20027;-80
2021/12/13 03:22:26;;;;;;;4.97;2.17;;;2.70;99.90;;;;;;5117624;27;20027;-79
2021/12/13 03:25:07;;;;;;;5.03;1.67;;;3.00;99.90;;;;;;5119651;27;20019;-81
2021/12/13 03:28:07;;;;;;;7.50;2.53;;;2.90;99.90;;;;;;5129691;27;20027;-80
2021/12/13 03:30:44;;;;;;;4.38;1.85;;;2.70;99.90;;;;;;5128903;27;20031;-80
2021/12/13 03:33:13;;;;;;;4.63;1.67;;;2.50;99.90;;;;;;5148660;27;20019;-80
2021/12/13 03:35:49;;;;;;;3.42;1.27;;;2.40;99.90;;;;;;5134284;27;20407;-80
2021/12/13 03:38:27;;;;;;;4.65;1.55;;;2.30;99.90;;;;;;5133995;27;20030;-81
2021/12/13 03:40:58;;;;;;;7.38;2.05;;;2.10;99.90;;;;;;5133051;27;20024;-81
2021/12/13 03:43:30;;;;;;;12.30;6.22;;;2.00;99.90;;;;;;5152558;27;20031;-82
2021/12/13 03:46:02;;;;;;;6.30;3.17;;;2.00;99.90;;;;;;5141828;27;20041;-80
2021/12/13 03:48:28;;;;;;;10.25;5.50;;;1.90;99.90;;;;;;5118104;27;20023;-76
2021/12/13 03:50:59;;;;;;;24.92;13.00;;;1.80;99.90;;;;;;5113847;27;20039;-78
2021/12/13 03:53:28;;;;;;;6.60;3.17;;;1.70;99.90;;;;;;5111452;27;20092;-78
2021/12/13 03:56:02;;;;;;;8.18;3.90;;;1.60;99.90;;;;;;5131699;27;20507;-78
2021/12/13 03:58:33;;;;;;;9.20;3.92;;;1.50;99.90;;;;;;5132588;27;20027;-77
2021/12/13 04:01:28;;;;;;;7.15;2.90;;;1.50;99.90;;;;;;5113144;27;20035;-78
2021/12/13 04:03:57;;;;;;;5.40;2.55;;;1.30;99.90;;;;;;5129040;27;20624;-77
2021/12/13 04:06:23;;;;;;;4.72;2.10;;;1.20;99.90;;;;;;5116248;27;20027;-78
2021/12/13 04:08:50;;;;;;;;;;;1.20;99.90;;;;;;5117529;27;20808;-77
2021/12/13 04:11:16;;;;;;;21.33;4.65;;;1.10;99.90;;;;;;5136621;27;19927;-78
2021/12/13 04:13:45;;;;;;;;;;;1.00;99.90;;;;;;5137376;27;20091;-78
2021/12/13 04:16:31;;;;;;;3.50;1.35;;;0.90;99.90;;;;;;5136509;27;20356;-80
2021/12/13 04:19:08;;;;;;;5.80;1.70;;;1.00;99.90;;;;;;5138867;27;20039;-79
2021/12/13 04:21:57;;;;;;;7.70;2.65;;;1.00;99.90;;;;;;5118207;27;20027;-80
2021/12/13 04:24:34;;;;;;;9.65;4.32;;;1.00;99.90;;;;;;5118203;27;20495;-80
2021/12/13 04:27:15;;;;;;;10.15;3.00;;;0.90;99.90;;;;;;5118714;27;20027;-80
2021/12/13 04:29:42;;;;;;;10.48;4.03;;;0.80;99.90;;;;;;5118869;27;20031;-79
2021/12/13 04:32:20;;;;;;;12.23;4.53;;;0.80;99.90;;;;;;5126213;27;20087;-78
2021/12/13 04:34:47;;;;;;;20.50;8.25;;;0.70;99.90;;;;;;5131897;27;20035;-77
2021/12/13 04:37:18;;;;;;;18.50;7.95;;;0.80;99.90;;;;;;5113237;27;20011;-77
2021/12/13 04:39:48;;;;;;;16.88;6.22;;;0.80;99.90;;;;;;5131083;27;20564;-80
2021/12/13 04:42:18;;;;;;;23.13;10.60;;;0.80;99.90;;;;;;5112843;27;20033;-78
2021/12/13 04:44:59;;;;;;;24.30;8.27;;;0.70;99.90;;;;;;5112065;27;20023;-80
2021/12/13 04:47:33;;;;;;;18.67;6.95;;;0.70;99.90;;;;;;5131577;27;20482;-78
2021/12/13 04:50:19;;;;;;;13.65;4.82;;;0.90;99.90;;;;;;5131223;27;20031;-79
2021/12/13 04:52:45;;;;;;;6.70;2.47;;;0.90;99.90;;;;;;5131826;27;20104;-78
2021/12/13 04:55:22;;;;;;;14.40;4.00;;;0.80;99.90;;;;;;5113510;27;20033;-78
2021/12/13 04:57:50;;;;;;;6.75;2.20;;;0.70;99.90;;;;;;5132171;27;20079;-78
2021/12/13 05:00:19;;;;;;;2.85;1.00;;;0.70;99.90;;;;;;5130952;27;20026;-77
2021/12/13 05:02:48;;;;;;;6.53;1.75;;;0.70;99.90;;;;;;5130675;27;20076;-77
2021/12/13 05:05:15;;;;;;;7.47;2.70;;;0.80;99.90;;;;;;5112270;27;20449;-78
2021/12/13 05:07:44;;;;;;;4.38;2.15;;;0.80;99.90;;;;;;5131007;27;20519;-78
2021/12/13 05:10:12;;;;;;;9.93;4.45;;;0.70;99.90;;;;;;5113295;27;20399;-78
2021/12/13 05:12:38;;;;;;;16.30;7.20;;;0.70;99.90;;;;;;5113846;27;20099;-78
2021/12/13 05:15:09;;;;;;;9.40;3.03;;;0.70;99.90;;;;;;5128886;27;20048;-77
2021/12/13 05:17:45;;;;;;;10.40;4.10;;;0.60;99.90;;;;;;5129114;27;20031;-77
2021/12/13 05:20:14;;;;;;;11.25;5.15;;;0.50;99.90;;;;;;5117011;27;20047;-79
2021/12/13 05:22:51;;;;;;;12.32;4.65;;;0.40;99.90;;;;;;5117304;27;20030;-79
2021/12/13 05:25:31;;;;;;;5.43;2.47;;;0.40;99.90;;;;;;5123351;27;20037;-80
2021/12/13 05:28:06;;;;;;;4.22;1.10;;;0.50;99.90;;;;;;5146235;27;20024;-79
2021/12/13 05:30:35;;;;;;;4.07;1.08;;;0.60;99.90;;;;;;5127783;27;20494;-79
2021/12/13 05:33:09;;;;;;;2.70;1.02;;;0.70;99.90;;;;;;5143057;27;20027;-80
2021/12/13 05:35:39;;;;;;;5.10;1.15;;;0.80;99.90;;;;;;5125026;28;20079;-78
2021/12/13 05:38:08;;;;;;;2.33;1.02;;;0.70;99.90;;;;;;5124639;27;20023;-79
2021/12/13 05:40:44;;;;;;;3.72;0.95;;;0.70;99.90;;;;;;5125377;27;20041;-79
2021/12/13 05:43:21;;;;;;;2.47;1.05;;;0.70;99.90;;;;;;5125614;27;20550;-80
2021/12/13 05:45:59;;;;;;;12.60;6.60;;;0.60;99.90;;;;;;5126424;28;20039;-79
2021/12/13 05:48:47;;;;;;;16.15;7.07;;;0.60;99.90;;;;;;5122684;28;20030;-79
2021/12/13 05:51:24;;;;;;;11.55;5.78;;;0.40;99.90;;;;;;5139425;28;20495;-78
2021/12/13 05:54:19;;;;;;;19.13;7.68;;;0.30;99.90;;;;;;5119604;28;20031;-78
2021/12/13 05:56:49;;;;;;;30.88;13.02;;;0.20;99.90;;;;;;5105451;28;20121;-79
2021/12/13 05:59:25;;;;;;;36.72;13.63;;;0.20;99.90;;;;;;5139860;28;20046;-80
2021/12/13 06:01:58;;;;;;;;;;;0.10;99.90;;;;;;5143480;28;20019;-79
2021/12/13 06:04:39;;;;;;;32.92;12.75;;;0.10;99.90;;;;;;5143421;28;19971;-79
2021/12/13 06:07:36;;;;;;;43.50;17.20;;;0.10;99.90;;;;;;5116537;28;20051;-76
2021/12/13 06:10:18;;;;;;;25.50;10.75;;;0.10;99.90;;;;;;5121602;28;20667;-79
2021/12/13 06:12:52;;;;;;;28.17;11.18;;;0.20;99.90;;;;;;5136966;27;20035;-79
2021/12/13 06:15:27;;;;;;;23.58;9.57;;;0.10;99.90;;;;;;5123492;27;20019;-77
2021/12/13 06:17:58;;;;;;;22.98;8.25;;;0.10;99.90;;;;;;5119698;27;20031;-79
2021/12/13 06:20:29;;;;;;;22.35;8.70;;;0.10;99.90;;;;;;5130245;27;20099;-81
2021/12/13 06:23:04;;;;;;;18.70;8.52;;;0.10;99.90;;;;;;5133077;27;20372;-79
2021/12/13 06:25:30;;;;;;;22.05;7.57;;;0.00;99.90;;;;;;5137354;27;20062;-78
2021/12/13 06:27:59;;;;;;;;;;;0.00;99.90;;;;;;5140177;27;20031;-79
2021/12/13 06:30:28;;;;;;;12.82;5.90;;;0.10;99.90;;;;;;5120592;27;19910;-79
2021/12/13 06:33:06;;;;;;;13.98;6.00;;;0.20;99.90;;;;;;5137854;27;20037;-78
2021/12/13 06:35:56;;;;;;;22.77;9.05;;;0.20;99.90;;;;;;5119120;27;20130;-78
2021/12/13 06:38:25;;;;;;;15.90;7.13;;;0.20;99.90;;;;;;5134819;27;20644;-78
2021/12/13 06:40:57;;;;;;;11.38;5.25;;;0.40;99.90;;;;;;5135856;27;20016;-80
2021/12/13 06:43:32;;;;;;;13.45;5.72;;;0.40;99.90;;;;;;5119393;27;20440;-79
2021/12/13 06:46:01;;;;;;;15.82;5.60;;;0.50;99.90;;;;;;5118515;27;20023;-79
2021/12/13 06:48:45;;;;;;;12.80;7.65;;;0.50;99.90;;;;;;5119880;27;20066;-79
2021/12/13 06:51:14;;;;;;;4.57;2.35;;;0.50;99.90;;;;;;5116457;27;20035;-78
2021/12/13 06:53:41;;;;;;;4.75;2.17;;;0.60;99.90;;;;;;5117166;27;20170;-79
2021/12/13 06:56:40;;;;;;;5.60;2.40;;;0.60;99.90;;;;;;5119592;27;20042;-79
2021/12/13 06:59:07;;;;;;;6.93;3.50;;;0.50;99.90;;;;;;5063309;27;20114;-79
2021/12/13 07:01:37;;;;;;;6.13;2.40;;;0.60;99.90;;;;;;5136618;27;20043;-79
2021/12/13 07:04:06;;;;;;;4.43;1.90;;;0.70;99.90;;;;;;5118956;27;20023;-80
2021/12/13 07:06:33;;;;;;;6.30;2.17;;;0.70;99.90;;;;;;5120070;27;20027;-79
2021/12/13 07:09:07;;;;;;;26.48;9.68;;;0.60;99.90;;;;;;5120221;27;20860;-79
2021/12/13 07:11:42;;;;;;;40.88;18.95;;;0.60;99.90;;;;;;5116005;28;20051;-80
2021/12/13 07:14:13;;;;;;;16.52;8.55;;;0.80;99.90;;;;;;5117637;27;20127;-79
2021/12/13 07:16:42;;;;;;;17.70;8.00;;;1.00;99.90;;;;;;5119904;27;20478;-80
2021/12/13 07:19:27;;;;;;;23.40;13.00;;;1.40;99.90;;;;;;5119963;27;20092;-78
2021/12/13 07:21:56;;;;;;;25.75;15.00;;;1.70;99.90;;;;;;5139855;27;20118;-79
2021/12/13 07:24:42;;;;;;;30.20;17.88;;;1.90;99.90;;;;;;5118104;27;20057;-80
2021/12/13 07:27:29;;;;;;;10.48;5.30;;;2.20;99.90;;;;;;5139851;27;20028;-80
2021/12/13 07:29:55;;;;;;;;;;;2.30;99.90;;;;;;5127334;27;20031;-78
2021/12/13 07:32:45;;;;;;;2.78;1.08;;;2.50;99.90;;;;;;5119174;27;19914;-79
2021/12/13 07:35:18;;;;;;;5.13;0.88;;;2.60;99.90;;;;;;5112397;27;20050;-78
2021/12/13 07:37:54;;;;;;;6.05;1.27;;;2.70;99.90;;;;;;5118636;27;20489;-78
2021/12/13 07:40:28;;;;;;;17.45;7.15;;;2.90;99.90;;;;;;5118251;27;20125;-79
2021/12/13 07:43:03;;;;;;;19.38;11.23;;;3.20;99.90;;;;;;5136574;27;20019;-78
2021/12/13 07:45:35;;;;;;;29.80;15.70;;;3.60;99.90;;;;;;5116855;27;20483;-80
2021/12/13 07:48:07;;;;;;;36.42;16.17;;;4.00;99.90;;;;;;5117223;27;20054;-79
2021/12/13 07:50:34;;;;;;;32.70;15.45;;;4.40;99.90;;;;;;5136390;27;20030;-79
2021/12/13 07:53:05;;;;;;;29.17;13.98;;;4.80;99.90;;;;;;5118776;27;20080;-78
2021/12/13 07:55:39;;;;;;;20.83;10.63;;;4.90;99.90;;;;;;5137973;27;20066;-79
2021/12/13 07:58:06;;;;;;;31.98;17.23;;;5.00;98.90;;;;;;5120659;27;20023;-79
2021/12/13 08:00:39;;;;;;;23.50;11.73;;;5.30;98.90;;;;;;5122610;27;20019;-79
2021/12/13 08:03:12;;;;;;;35.65;8.60;;;5.60;99.90;;;;;;5123096;27;20023;-79
2021/12/13 08:05:51;;;;;;;8.70;4.57;;;6.10;98.80;;;;;;5123649;27;20047;-80
2021/12/13 08:08:27;;;;;;;13.52;6.28;;;6.50;95.30;;;;;;5143002;27;20102;-78
2021/12/13 08:10:57;;;;;;;11.43;6.22;;;6.90;90.60;;;;;;5142302;27;20047;-79
2021/12/13 08:13:28;;;;;;;13.80;6.85;;;7.10;92.20;;;;;;5123423;27;20522;-79
2021/12/13 08:16:06;;;;;;;21.60;6.60;;;7.40;89.10;;;;;;5141978;27;20047;-80
2021/12/13 08:18:43;;;;;;;11.15;3.47;;;7.60;81.60;;;;;;5144302;27;20061;-80
2021/12/13 08:21:22;;;;;;;5.60;2.70;;;7.80;79.60;;;;;;5142958;27;20027;-81
2021/12/13 08:23:55;;;;;;;9.25;4.00;;;8.10;73.90;;;;;;5115643;27;20089;-80
2021/12/13 08:26:32;;;;;;;16.73;7.75;;;8.30;70.10;;;;;;5129571;27;20019;-83
2021/12/13 08:29:00;;;;;;;32.80;12.00;;;8.40;69.80;;;;;;5129548;27;20083;-84
2021/12/13 08:31:39;;;;;;;32.15;11.75;;;8.30;69.00;;;;;;5129532;27;20391;-82
2021/12/13 08:34:22;;;;;;;13.02;5.50;;;8.20;71.20;;;;;;5129366;27;20483;-84
2021/12/13 08:36:48;;;;;;;11.55;4.45;;;8.00;66.60;;;;;;5117125;27;20025;-79
2021/12/13 08:39:21;;;;;;;;;;;7.70;70.90;;;;;;5140436;27;20098;-79
2021/12/13 08:41:54;;;;;;;9.00;5.55;;;7.80;66.70;;;;;;5145780;27;19919;-80
2021/12/13 08:44:27;;;;;;;8.15;4.85;;;7.60;69.60;;;;;;5126523;27;20087;-79
2021/12/13 08:46:56;;;;;;;5.45;2.97;;;7.50;71.70;;;;;;5144547;27;20031;-78
2021/12/13 08:49:43;;;;;;;5.65;2.30;;;7.50;69.50;;;;;;5124805;27;20487;-80
2021/12/13 08:52:33;;;;;;;4.13;1.70;;;7.40;68.60;;;;;;5125197;27;20031;-79
2021/12/13 08:55:23;;;;;;;3.78;1.58;;;7.30;70.30;;;;;;5126581;27;20075;-80
2021/12/13 08:58:06;;;;;;;4.28;2.20;;;7.20;74.30;;;;;;5127656;27;20032;-79
2021/12/13 09:00:55;;;;;;;6.18;2.40;;;7.20;75.30;;;;;;5140940;27;20023;-79
2021/12/13 09:03:36;;;;;;;5.53;3.10;;;7.10;71.00;;;;;;5121355;27;20027;-78
2021/12/13 09:06:23;;;;;;;7.43;3.97;;;7.00;72.20;;;;;;5120644;27;20027;-78
2021/12/13 09:09:15;;;;;;;42.58;27.15;;;7.10;68.50;;;;;;5120411;27;20023;-78
2021/12/13 09:11:56;;;;;;;11.73;4.20;;;7.00;69.80;;;;;;5120568;27;20047;-78
2021/12/13 09:14:39;;;;;;;5.25;2.83;;;7.00;70.10;;;;;;5138623;27;20042;-77
2021/12/13 09:17:26;;;;;;;13.70;4.03;;;7.00;68.90;;;;;;5120698;27;20108;-80
2021/12/13 09:20:21;;;;;;;11.57;6.20;;;7.00;72.30;;;;;;5120698;27;20035;-78
2021/12/13 09:23:11;;;;;;;13.30;5.15;;;7.00;78.90;;;;;;5082789;27;20035;-79
2021/12/13 09:25:59;;;;;;;30.38;13.02;;;6.90;78.50;;;;;;5137690;27;20046;-78
2021/12/13 09:28:29;;;;;;;22.55;11.93;;;6.90;87.00;;;;;;5119272;27;20491;-77
2021/12/13 09:31:04;;;;;;;24.38;11.75;;;6.80;89.70;;;;;;5120815;27;20030;-78
2021/12/13 09:33:34;;;;;;;20.30;10.10;;;6.80;90.30;;;;;;5138999;27;20056;-78
2021/12/13 09:36:19;;;;;;;27.60;17.40;;;6.80;89.40;;;;;;5119329;28;20023;-78
2021/12/13 09:38:54;;;;;;;10.13;4.07;;;6.80;89.10;;;;;;5138221;27;20039;-78
2021/12/13 09:41:59;;;;;;;11.18;4.40;;;6.90;81.60;;;;;;5119049;27;20058;-80
2021/12/13 09:44:40;;;;;;;10.90;4.80;;;6.90;83.10;;;;;;5118768;27;20023;-78
2021/12/13 09:47:10;;;;;;;9.68;5.47;;;6.80;86.40;;;;;;5118424;28;20059;-78
2021/12/13 09:49:45;;;;;;;10.38;5.15;;;6.80;84.20;;;;;;5118813;28;20026;-78
2021/12/13 09:52:32;;;;;;;5.05;2.80;;;6.80;79.30;;;;;;5137439;28;20052;-77
2021/12/13 09:55:30;;;;;;;10.50;3.30;;;6.80;78.90;;;;;;5137850;28;20031;-78
2021/12/13 09:58:04;;;;;;;;;;;6.70;84.30;;;;;;5118509;28;20533;-77
2021/12/13 10:00:59;;;;;;;13.57;5.25;;;6.70;81.50;;;;;;5117867;28;20329;-78
2021/12/13 10:03:41;;;;;;;8.73;2.72;;;6.80;80.90;;;;;;5135457;28;20394;-78
2021/12/13 10:06:08;;;;;;;11.93;3.85;;;6.90;78.40;;;;;;5135086;28;20035;-77
2021/12/13 10:08:43;;;;;;;13.43;3.63;;;6.80;82.50;;;;;;5137993;27;20043;-77
2021/12/13 10:11:19;;;;;;;13.07;6.50;;;6.80;84.10;;;;;;5126348;27;20042;-76
2021/12/13 10:13:45;;;;;;;4.38;2.50;;;6.80;79.50;;;;;;5118052;27;20046;-77
2021/12/13 10:16:17;;;;;;;13.38;5.72;;;6.90;73.90;;;;;;5128063;27;20039;-77
2021/12/13 10:18:45;;;;;;;4.88;1.95;;;6.80;76.00;;;;;;5139110;28;20047;-78
2021/12/13 10:21:20;;;;;;;28.83;15.95;;;6.90;72.00;;;;;;5121541;28;20023;-77
2021/12/13 10:23:50;;;;;;;6.95;3.83;;;6.90;69.90;;;;;;5129020;28;20058;-78
2021/12/13 10:26:18;;;;;;;6.78;3.13;;;7.00;70.50;;;;;;5138954;28;20027;-77
2021/12/13 10:28:58;;;;;;;9.60;2.67;;;7.00;76.40;;;;;;5113136;28;20019;-78
2021/12/13 10:31:32;;;;;;;6.90;2.80;;;6.90;79.50;;;;;;5113253;28;20030;-78
2021/12/13 10:34:01;;;;;;;8.70;2.40;;;7.00;80.70;;;;;;5130161;28;20023;-76
2021/12/13 10:36:28;;;;;;;8.35;3.60;;;6.90;77.20;;;;;;5112324;28;20032;-77
2021/12/13 10:38:58;;;;;;;8.30;3.05;;;7.00;79.30;;;;;;5116663;28;20030;-78
2021/12/13 10:41:31;;;;;;;6.18;2.17;;;7.00;78.70;;;;;;5116406;28;20022;-78
2021/12/13 10:44:05;;;;;;;12.68;3.45;;;7.00;79.20;;;;;;5115383;28;20088;-79
2021/12/13 10:46:36;;;;;;;9.45;3.92;;;6.90;81.40;;;;;;5135570;28;20020;-78
2021/12/13 10:49:25;;;;;;;8.35;1.90;;;6.90;79.80;;;;;;5116318;28;20106;-80
2021/12/13 10:52:05;;;;;;;7.00;3.05;;;7.00;76.50;;;;;;5135421;28;20030;-78
2021/12/13 10:54:44;;;;;;;8.00;5.20;;;7.00;87.10;;;;;;5134665;28;20019;-79
2021/12/13 10:57:22;;;;;;;5.93;2.80;;;7.20;85.30;;;;;;5116193;28;20019;-79
2021/12/13 10:59:49;;;;;;;9.02;3.92;;;7.10;87.50;;;;;;5118658;27;20045;-80
2021/12/13 11:02:20;;;;;;;8.75;2.70;;;7.10;85.20;;;;;;5138984;27;20027;-79
2021/12/13 11:04:50;;;;;;;8.57;2.90;;;7.10;85.70;;;;;;5120126;27;20050;-79
2021/12/13 11:07:17;;;;;;;7.65;2.55;;;7.10;84.10;;;;;;5120301;27;20054;-79
2021/12/13 11:09:45;;;;;;;6.03;2.20;;;7.10;86.90;;;;;;5138556;27;20027;-78
2021/12/13 11:12:19;;;;;;;4.88;2.00;;;7.10;89.20;;;;;;5118184;28;20084;-77
2021/12/13 11:14:48;;;;;;;9.38;3.33;;;7.10;87.80;;;;;;5101499;28;20034;-78
2021/12/13 11:17:18;;;;;;;4.97;2.53;;;7.20;80.10;;;;;;5101539;28;20047;-79
2021/12/13 11:19:49;;;;;;;6.20;3.13;;;7.30;81.90;;;;;;5100534;28;20122;-80
2021/12/13 11:22:21;;;;;;;6.72;2.72;;;7.20;84.40;;;;;;5101037;28;20115;-79
2021/12/13 11:24:52;;;;;;;4.85;1.90;;;7.20;84.10;;;;;;5100654;28;20492;-77
2021/12/13 11:27:22;;;;;;;3.83;1.50;;;7.20;81.40;;;;;;5119354;28;20106;-78
2021/12/13 11:29:51;;;;;;;10.13;3.70;;;7.10;78.50;;;;;;5099654;28;20031;-78
2021/12/13 11:32:58;;;;;;;7.18;3.72;;;7.10;84.40;;;;;;5098689;28;20043;-79
2021/12/13 11:35:48;;;;;;;10.07;4.82;;;7.10;90.30;;;;;;5129270;28;20058;-79
2021/12/13 11:38:47;;;;;;;9.85;3.17;;;7.10;91.50;;;;;;5118768;28;20495;-78
2021/12/13 11:41:50;;;;;;;11.48;5.10;;;7.10;91.80;;;;;;5097575;28;20026;-78
2021/12/13 11:44:40;;;;;;;17.02;9.98;;;7.10;89.20;;;;;;5126971;28;20024;-78
2021/12/13 11:47:33;;;;;;;9.32;5.57;;;7.10;87.10;;;;;;5100074;28;20057;-78
2021/12/13 11:50:23;;;;;;;6.30;3.40;;;7.00;89.50;;;;;;5116737;28;20059;-78
2021/12/13 11:53:30;;;;;;;8.63;3.70;;;7.10;87.80;;;;;;5123005;28;20028;-78
2021/12/13 11:56:21;;;;;;;11.65;3.78;;;7.10;90.40;;;;;;5095533;28;20116;-78
2021/12/13 11:59:13;;;;;;;5.78;2.60;;;7.10;85.90;;;;;;5095203;28;20349;-78
2021/12/13 12:02:01;;;;;;;14.45;3.10;;;7.10;83.60;;;;;;5095203;28;20039;-78
2021/12/13 12:05:06;;;;;;;9.15;3.25;;;7.00;84.20;;;;;;5096467;28;20023;-78
2021/12/13 12:08:00;;;;;;;10.55;4.03;;;7.00;91.20;;;;;;5095248;28;20028;-78
2021/12/13 12:10:25;;;;;;;8.13;2.92;;;7.00;92.70;;;;;;5119231;27;20055;-77
2021/12/13 12:13:14;;;;;;;7.55;3.47;;;7.00;92.20;;;;;;5137796;27;20028;-79
2021/12/13 12:15:42;;;;;;;7.90;3.75;;;7.00;92.90;;;;;;5153502;27;20094;-79
2021/12/13 12:18:12;;;;;;;8.13;4.45;;;7.00;95.00;;;;;;5135485;27;20007;-79
2021/12/13 12:21:09;;;;;;;10.38;4.57;;;7.00;94.40;;;;;;5136818;27;20027;-79
2021/12/13 12:23:38;;;;;;;6.80;3.85;;;7.00;94.00;;;;;;5135753;27;20110;-80
2021/12/13 12:26:04;;;;;;;8.77;4.13;;;7.00;92.90;;;;;;5138714;27;20041;-78
2021/12/13 12:28:31;;;;;;;;;;;7.00;92.20;;;;;;5137244;27;20051;-80
2021/12/13 12:30:58;;;;;;;8.63;4.35;;;7.00;90.90;;;;;;5135615;27;19907;-80
2021/12/13 12:33:34;;;;;;;6.65;3.60;;;7.00;91.10;;;;;;5153616;27;20035;-79
2021/12/13 12:36:17;;;;;;;8.88;3.80;;;7.00;91.60;;;;;;5136284;27;20019;-79
2021/12/13 12:39:02;;;;;;;16.83;9.93;;;7.00;91.70;;;;;;5135660;27;20071;-80
2021/12/13 12:41:43;;;;;;;38.78;22.23;;;7.10;91.10;;;;;;5142240;27;20032;-78
2021/12/13 12:44:16;;;;;;;11.93;5.82;;;7.00;91.10;;;;;;5114913;27;20035;-78
2021/12/13 12:46:42;;;;;;;12.40;4.50;;;7.10;90.20;;;;;;5114653;27;20027;-77
2021/12/13 12:49:13;;;;;;;;;;;7.10;90.20;;;;;;5134403;27;20034;-78
2021/12/13 12:51:39;;;;;;;7.20;2.80;;;7.10;89.80;;;;;;5115605;27;19903;-78
2021/12/13 12:54:12;;;;;;;5.90;2.63;;;7.20;89.50;;;;;;5134172;27;20071;-79
2021/12/13 12:56:53;;;;;;;4.32;1.63;;;7.10;88.50;;;;;;5116025;27;20053;-78
2021/12/13 12:59:18;;;;;;;6.82;2.13;;;7.10;90.40;;;;;;5116539;27;20054;-77
2021/12/13 13:02:06;;;;;;;4.80;2.08;;;7.10;91.10;;;;;;5138712;27;20026;-78
2021/12/13 13:04:41;;;;;;;8.10;1.80;;;7.10;91.70;;;;;;5125606;27;20011;-79
2021/12/13 13:07:24;;;;;;;5.95;2.92;;;7.10;91.00;;;;;;5155927;27;20044;-79
2021/12/13 13:10:25;;;;;;;14.05;5.72;;;7.10;90.00;;;;;;5136621;27;20023;-80
2021/12/13 13:12:54;;;;;;;17.15;7.55;;;7.10;90.30;;;;;;5123393;27;20129;-80
2021/12/13 13:15:27;;;;;;;9.43;4.60;;;7.10;90.40;;;;;;5122665;27;20038;-79
2021/12/13 13:18:00;;;;;;;5.18;2.33;;;7.10;90.00;;;;;;5123380;27;20383;-79
2021/12/13 13:20:40;;;;;;;2.92;1.42;;;7.00;83.70;;;;;;5126948;27;20502;-78
2021/12/13 13:23:08;;;;;;;6.15;1.95;;;7.00;85.10;;;;;;5124326;27;20023;-78
2021/12/13 13:25:50;;;;;;;3.28;1.27;;;7.00;84.80;;;;;;5117060;27;20037;-79
2021/12/13 13:28:27;;;;;;;7.25;1.63;;;6.90;81.00;;;;;;5136095;27;20030;-79
2021/12/13 13:31:03;;;;;;;4.65;1.55;;;6.90;82.60;;;;;;5120348;27;20019;-78
2021/12/13 13:33:43;;;;;;;4.38;1.67;;;6.80;84.60;;;;;;5134295;27;20070;-79
2021/12/13 13:36:16;;;;;;;5.70;2.20;;;6.80;88.80;;;;;;5116947;27;20498;-79
2021/12/13 13:38:43;;;;;;;5.13;1.95;;;6.80;90.90;;;;;;5136139;27;20026;-79
2021/12/13 13:41:12;;;;;;;5.35;2.13;;;6.70;91.60;;;;;;5136469;27;20068;-79
2021/12/13 13:43:39;;;;;;;3.88;1.80;;;6.70;91.10;;;;;;5137035;27;20106;-79
2021/12/13 13:46:06;;;;;;;6.75;2.58;;;6.60;91.20;;;;;;5118733;27;20030;-80